NGX weather

Manang Airport
Ngawal, Gandaki, Nepal

Public forecast

Using degrees Celsius for public forecast. Weather courtesy of forecast.io.

Closest aviation weather report (METAR) to Manang Airport

Closest report is Tribhuvan International Airport, 88.0 nm (162.9 km) SE. Retrieved 2020/01/26 13:50 UTC (21 minutes ago):

VNKT 261350Z 24005KT 200V300 6000 FEW015 SCT030 10/06 Q1015 NOSIG

Closest aviation forecast (TAF) to Manang Airport

Closest forecast is Tribhuvan International Airport, 88.0 nm (162.9 km) SE. Retrieved 2020/01/26 12:42 UTC (1 hour ago):

TAF TAF VNKT 261100Z 2612/2712 26004KT 5000 HZ FEW015 BECMG 2614/2615 12003KT 5000 BR FEW015 BECMG 2700/2702 VRB02KT 3000 BR FEW010 SCT100 PROB40 2701/2703 1500 BR BECMG 2704/2705 12004KT 4000 HZ FEW015 BECMG 2707/2708 28008KT 8000 FEW020 SCT030 BKN100